createdAt,value
2023-05-23T00:01:47.129Z,14.61
2023-05-23T00:06:53.517Z,14.87
2023-05-23T00:11:56.779Z,14.77
2023-05-23T00:16:59.657Z,14.85
2023-05-23T00:22:01.346Z,14.84
2023-05-23T00:27:03.265Z,14.59
2023-05-23T00:32:05.111Z,14.65
2023-05-23T00:37:07.141Z,14.67
2023-05-23T00:42:09.076Z,14.56
2023-05-23T00:47:13.896Z,14.53
2023-05-23T00:52:16.093Z,14.43
2023-05-23T00:57:18.783Z,14.28
2023-05-23T01:02:21.661Z,14.52
2023-05-23T01:07:23.513Z,14.57
2023-05-23T01:12:56.636Z,14.63
2023-05-23T01:18:08.480Z,14.71
2023-05-23T01:23:19.604Z,14.51
2023-05-23T01:28:23.981Z,14.27
2023-05-23T01:33:27.678Z,14.35
2023-05-23T01:38:29.670Z,14.41
2023-05-23T01:43:31.640Z,14.43
2023-05-23T01:48:35.240Z,14.39
2023-05-23T01:53:37.625Z,14.26
2023-05-23T01:58:39.616Z,14.15
2023-05-23T02:03:42.029Z,14.35
2023-05-23T02:08:43.782Z,14.22
2023-05-23T02:13:45.543Z,14.11
2023-05-23T02:18:47.718Z,14.46
2023-05-23T02:23:52.214Z,14.24
2023-05-23T02:28:54.078Z,14.22
2023-05-23T02:33:55.996Z,14.06
2023-05-23T02:38:58.948Z,13.93
2023-05-23T02:44:00.683Z,14.11
2023-05-23T02:49:02.931Z,14.19
2023-05-23T02:54:04.578Z,14.36
2023-05-23T02:59:09.524Z,14.23
2023-05-23T03:04:14.062Z,14.20
2023-05-23T03:09:21.211Z,14.24
2023-05-23T03:14:23.141Z,14.00
2023-05-23T03:19:24.976Z,13.81
2023-05-23T03:24:26.722Z,13.75
2023-05-23T03:29:28.398Z,13.68
2023-05-23T03:34:30.493Z,13.58
2023-05-23T03:39:32.438Z,13.69
2023-05-23T03:44:34.318Z,13.83
2023-05-23T03:49:38.117Z,13.65
2023-05-23T03:54:40.348Z,13.53
2023-05-23T03:59:42.815Z,13.47
2023-05-23T04:04:47.679Z,13.68
2023-05-23T04:09:50.133Z,13.33
2023-05-23T04:14:53.461Z,13.49
2023-05-23T04:19:55.536Z,13.45
2023-05-23T04:24:57.841Z,13.65
2023-05-23T04:30:01.772Z,13.41
2023-05-23T04:35:04.634Z,13.84
2023-05-23T04:40:08.386Z,13.67
2023-05-23T04:45:21.739Z,13.25
2023-05-23T04:50:34.287Z,13.28
2023-05-23T04:55:36.342Z,13.11
2023-05-23T05:00:38.625Z,13.30
2023-05-23T05:05:40.813Z,13.20
2023-05-23T05:10:43.037Z,13.28
2023-05-23T05:15:46.433Z,13.23
2023-05-23T05:20:49.904Z,13.12
2023-05-23T05:25:51.879Z,13.05
2023-05-23T05:30:55.423Z,13.19
2023-05-23T05:35:57.817Z,13.48
2023-05-23T05:41:00.423Z,13.52
2023-05-23T05:46:06.734Z,13.36
2023-05-23T05:51:09.105Z,13.46
2023-05-23T05:56:10.956Z,13.27
2023-05-23T06:01:17.774Z,13.46
2023-05-23T06:06:20.123Z,13.32
2023-05-23T06:11:22.733Z,13.28
2023-05-23T06:16:24.605Z,13.92
2023-05-23T06:21:26.491Z,14.00
2023-05-23T06:26:28.348Z,13.99
2023-05-23T06:31:30.064Z,14.08
2023-05-23T06:36:32.933Z,13.96
2023-05-23T06:41:34.546Z,13.68
2023-05-23T06:46:38.990Z,13.58
2023-05-23T06:51:42.173Z,13.83
2023-05-23T06:56:44.406Z,14.02
2023-05-23T07:01:46.373Z,14.05
2023-05-23T07:06:51.115Z,14.25
2023-05-23T07:11:52.889Z,14.12
2023-05-23T07:16:55.091Z,13.96
2023-05-23T07:21:56.835Z,13.94
2023-05-23T07:26:58.848Z,14.18
2023-05-23T07:32:01.548Z,13.83
2023-05-23T07:37:04.212Z,13.83
2023-05-23T07:42:13.440Z,13.85
2023-05-23T07:47:15.690Z,13.89
2023-05-23T07:52:18.192Z,14.18
2023-05-23T07:57:20.507Z,14.58
2023-05-23T08:02:25.860Z,15.01
2023-05-23T08:07:28.714Z,14.98
2023-05-23T08:12:34.512Z,14.49
2023-05-23T08:17:43.242Z,14.53
2023-05-23T08:22:46.882Z,15.03
2023-05-23T08:27:49.617Z,14.92
2023-05-23T08:33:11.635Z,14.78
2023-05-23T08:38:16.131Z,15.24
2023-05-23T08:43:29.410Z,15.54
2023-05-23T08:48:35.055Z,15.33
2023-05-23T08:53:41.220Z,14.92
2023-05-23T08:58:44.135Z,15.25
2023-05-23T09:03:51.124Z,15.53
2023-05-23T09:09:02.582Z,15.67
2023-05-23T09:14:05.222Z,15.62
2023-05-23T09:19:12.806Z,15.99
2023-05-23T09:24:16.706Z,15.89
2023-05-23T09:29:21.269Z,15.49
2023-05-23T09:34:22.972Z,15.95
2023-05-23T09:39:24.760Z,16.54
2023-05-23T09:44:26.605Z,16.33
2023-05-23T09:49:28.467Z,16.15
2023-05-23T09:54:30.175Z,15.85
2023-05-23T09:59:35.168Z,15.72
2023-05-23T10:04:38.243Z,15.66
2023-05-23T10:09:42.755Z,15.75
2023-05-23T10:14:49.300Z,15.97
2023-05-23T10:20:01.004Z,15.87
2023-05-23T10:25:06.907Z,15.98
2023-05-23T10:30:09.648Z,15.91
2023-05-23T10:35:33.279Z,16.02
2023-05-23T10:40:49.619Z,15.96
2023-05-23T10:45:52.148Z,16.42
2023-05-23T10:51:07.060Z,16.77
2023-05-23T10:56:10.197Z,16.90
2023-05-23T11:01:19.999Z,17.14
2023-05-23T11:06:43.350Z,17.22
2023-05-23T11:11:52.088Z,17.17
2023-05-23T11:16:53.771Z,17.87
2023-05-23T11:21:58.994Z,17.98
2023-05-23T11:27:01.324Z,18.18
2023-05-23T11:32:15.326Z,17.93
2023-05-23T11:37:25.949Z,17.96
2023-05-23T11:42:28.869Z,18.20
2023-05-23T11:47:30.454Z,18.13
2023-05-23T11:52:33.109Z,18.53
2023-05-23T11:57:38.440Z,18.49
2023-05-23T12:02:41.261Z,18.00
2023-05-23T12:07:49.157Z,18.21
2023-05-23T12:12:51.928Z,17.99
2023-05-23T12:17:57.023Z,18.51
2023-05-23T12:22:58.752Z,18.65
2023-05-23T12:28:00.700Z,18.81
2023-05-23T12:33:09.014Z,19.07
2023-05-23T12:38:15.117Z,18.72
2023-05-23T12:43:16.935Z,18.62
2023-05-23T12:48:20.345Z,18.90
2023-05-23T12:53:23.820Z,19.17
2023-05-23T12:58:29.021Z,19.09
2023-05-23T13:03:32.406Z,19.09
2023-05-23T13:08:34.016Z,19.20
2023-05-23T13:13:35.812Z,19.26
2023-05-23T13:18:37.478Z,18.74
2023-05-23T13:23:39.117Z,19.30
2023-05-23T13:28:40.764Z,18.95
2023-05-23T13:33:42.454Z,18.96
2023-05-23T13:38:44.245Z,18.95
2023-05-23T13:43:45.967Z,19.37
2023-05-23T13:48:48.142Z,19.47
2023-05-23T13:53:50.195Z,19.12
2023-05-23T13:58:52.315Z,19.29
2023-05-23T14:03:54.461Z,19.12
2023-05-23T14:08:56.402Z,19.46
2023-05-23T14:13:58.129Z,19.23
2023-05-23T14:18:59.844Z,19.28
2023-05-23T14:24:01.551Z,19.21
2023-05-23T14:29:04.037Z,18.90
2023-05-23T14:34:05.793Z,19.08
2023-05-23T14:39:10.982Z,19.17
2023-05-23T14:44:13.077Z,19.24
2023-05-23T14:49:15.769Z,18.94
2023-05-23T14:54:18.529Z,18.85
2023-05-23T14:59:20.436Z,18.84
2023-05-23T15:04:22.302Z,18.36
2023-05-23T15:09:24.390Z,18.55
2023-05-23T15:14:29.654Z,18.66
2023-05-23T15:19:31.359Z,19.10
2023-05-23T15:29:39.815Z,18.15
2023-05-23T15:34:41.519Z,18.26
2023-05-23T15:39:43.319Z,18.29
2023-05-23T15:44:45.045Z,18.66
2023-05-23T15:49:49.382Z,18.32
2023-05-23T15:54:50.997Z,18.50
2023-05-23T15:59:52.710Z,18.19
2023-05-23T16:04:54.364Z,18.25
2023-05-23T16:09:56.511Z,17.79
2023-05-23T16:14:58.255Z,18.13
2023-05-23T16:20:00.504Z,18.17
2023-05-23T16:25:02.291Z,17.84
2023-05-23T16:30:04.666Z,17.60
2023-05-23T16:35:09.416Z,17.79
2023-05-23T16:40:11.478Z,18.01
2023-05-23T16:45:13.221Z,18.25
2023-05-23T16:50:15.019Z,17.94
2023-05-23T16:55:16.731Z,18.29
2023-05-23T17:00:21.580Z,17.93
2023-05-23T17:05:23.832Z,17.79
2023-05-23T17:10:26.515Z,17.83
2023-05-23T17:15:28.162Z,17.96
2023-05-23T17:20:29.851Z,17.75
2023-05-23T17:25:31.595Z,17.24
2023-05-23T17:30:33.403Z,17.03
2023-05-23T17:35:35.071Z,17.38
2023-05-23T17:40:36.998Z,17.14
2023-05-23T17:45:39.059Z,17.09
2023-05-23T17:50:41.065Z,16.84
2023-05-23T17:55:43.098Z,16.77
2023-05-23T18:00:46.887Z,16.68
2023-05-23T18:05:50.013Z,16.46
2023-05-23T18:10:51.956Z,16.14
2023-05-23T18:15:53.727Z,15.78
2023-05-23T18:20:55.610Z,15.64
2023-05-23T18:25:57.872Z,15.50
2023-05-23T18:30:59.611Z,15.38
2023-05-23T18:36:01.561Z,14.99
2023-05-23T18:41:03.312Z,15.00
2023-05-23T18:46:05.006Z,14.82
2023-05-23T18:51:07.033Z,14.85
2023-05-23T18:56:08.815Z,14.41
2023-05-23T19:01:10.457Z,14.35
2023-05-23T19:06:12.620Z,14.33
2023-05-23T19:11:14.773Z,14.50
2023-05-23T19:16:19.804Z,14.33
2023-05-23T19:21:22.008Z,14.25
2023-05-23T19:26:24.079Z,14.13
2023-05-23T19:31:25.879Z,14.06
2023-05-23T19:36:27.616Z,14.13
2023-05-23T19:41:29.287Z,14.06
2023-05-23T19:46:31.053Z,13.97
2023-05-23T19:51:32.840Z,13.82
2023-05-23T19:56:35.973Z,13.86
2023-05-23T20:01:37.693Z,13.79
2023-05-23T20:06:39.688Z,13.74
2023-05-23T20:11:45.630Z,13.72
2023-05-23T20:16:50.234Z,13.55
2023-05-23T20:21:52.033Z,13.56
2023-05-23T20:26:53.778Z,13.37
2023-05-23T20:31:56.171Z,13.14
2023-05-23T20:36:57.883Z,13.26
2023-05-23T20:41:59.788Z,13.19
2023-05-23T20:47:01.568Z,13.23
2023-05-23T20:52:03.754Z,13.21
2023-05-23T20:57:05.699Z,13.12
2023-05-23T21:02:08.202Z,13.06
2023-05-23T21:07:09.996Z,13.03
2023-05-23T21:12:11.634Z,12.98
2023-05-23T21:17:13.589Z,12.98
2023-05-23T21:22:15.632Z,12.93
2023-05-23T21:27:19.392Z,12.88
2023-05-23T21:32:21.494Z,12.82
2023-05-23T21:37:23.414Z,12.76
2023-05-23T21:42:25.628Z,12.68
2023-05-23T21:47:27.281Z,12.66
2023-05-23T21:52:28.993Z,12.58
2023-05-23T21:57:30.906Z,12.54
2023-05-23T22:02:33.207Z,12.42
2023-05-23T22:07:35.006Z,12.43
2023-05-23T22:12:36.799Z,12.31
2023-05-23T22:17:43.287Z,12.24
2023-05-23T22:22:45.159Z,12.12
2023-05-23T22:27:48.977Z,12.10
2023-05-23T22:32:50.674Z,12.01
2023-05-23T22:37:52.437Z,12.00
2023-05-23T22:42:54.050Z,11.93
2023-05-23T22:47:56.142Z,11.97
2023-05-23T22:52:58.590Z,12.02
2023-05-23T22:58:03.623Z,12.03
2023-05-23T23:03:05.582Z,12.04
2023-05-23T23:08:07.726Z,12.04
2023-05-23T23:13:09.457Z,11.94
2023-05-23T23:18:13.433Z,11.91
2023-05-23T23:23:15.198Z,11.74
2023-05-23T23:28:19.856Z,11.67
2023-05-23T23:33:21.540Z,11.62
2023-05-23T23:38:23.182Z,11.60
2023-05-23T23:43:24.796Z,11.37
2023-05-23T23:48:26.401Z,11.27
2023-05-23T23:53:28.010Z,11.25
2023-05-23T23:58:29.660Z,11.15
